sensor_id;sensor_type;location;lat;lon;timestamp;P1;durP1;ratioP1;P2;durP2;ratioP2
24713;SDS011;12820;51.580;5.010;2023-04-08T00:02:55;46.88;;;22.70;;
24713;SDS011;12820;51.580;5.010;2023-04-08T00:07:57;52.65;;;21.35;;
24713;SDS011;12820;51.580;5.010;2023-04-08T00:12:59;41.88;;;21.10;;
24713;SDS011;12820;51.580;5.010;2023-04-08T00:18:02;45.40;;;22.05;;
24713;SDS011;12820;51.580;5.010;2023-04-08T00:23:04;57.38;;;22.58;;
24713;SDS011;12820;51.580;5.010;2023-04-08T00:28:06;43.15;;;21.23;;
24713;SDS011;12820;51.580;5.010;2023-04-08T00:33:08;48.42;;;23.23;;
24713;SDS011;12820;51.580;5.010;2023-04-08T00:38:12;49.63;;;22.75;;
24713;SDS011;12820;51.580;5.010;2023-04-08T00:43:14;54.55;;;23.33;;
24713;SDS011;12820;51.580;5.010;2023-04-08T00:48:17;48.65;;;24.45;;
24713;SDS011;12820;51.580;5.010;2023-04-08T00:53:19;55.00;;;24.73;;
24713;SDS011;12820;51.580;5.010;2023-04-08T00:58:21;46.10;;;24.00;;
24713;SDS011;12820;51.580;5.010;2023-04-08T01:03:34;41.75;;;22.52;;
24713;SDS011;12820;51.580;5.010;2023-04-08T01:08:45;50.92;;;24.95;;
24713;SDS011;12820;51.580;5.010;2023-04-08T01:13:51;53.17;;;24.45;;
24713;SDS011;12820;51.580;5.010;2023-04-08T01:18:57;52.50;;;25.70;;
24713;SDS011;12820;51.580;5.010;2023-04-08T01:24:02;55.72;;;25.98;;
24713;SDS011;12820;51.580;5.010;2023-04-08T01:29:10;48.92;;;24.45;;
24713;SDS011;12820;51.580;5.010;2023-04-08T01:34:13;56.90;;;24.13;;
24713;SDS011;12820;51.580;5.010;2023-04-08T01:39:17;49.97;;;25.00;;
24713;SDS011;12820;51.580;5.010;2023-04-08T01:44:22;58.67;;;25.33;;
24713;SDS011;12820;51.580;5.010;2023-04-08T01:49:25;60.20;;;25.10;;
24713;SDS011;12820;51.580;5.010;2023-04-08T01:54:27;50.28;;;26.23;;
24713;SDS011;12820;51.580;5.010;2023-04-08T01:59:30;49.92;;;24.65;;
24713;SDS011;12820;51.580;5.010;2023-04-08T02:04:36;51.33;;;25.52;;
24713;SDS011;12820;51.580;5.010;2023-04-08T02:09:39;49.72;;;24.15;;
24713;SDS011;12820;51.580;5.010;2023-04-08T02:14:41;49.53;;;24.67;;
24713;SDS011;12820;51.580;5.010;2023-04-08T02:20:04;44.95;;;23.25;;
24713;SDS011;12820;51.580;5.010;2023-04-08T02:25:10;59.60;;;25.02;;
24713;SDS011;12820;51.580;5.010;2023-04-08T02:30:15;57.97;;;23.73;;
24713;SDS011;12820;51.580;5.010;2023-04-08T02:35:18;50.70;;;25.30;;
24713;SDS011;12820;51.580;5.010;2023-04-08T02:40:25;48.83;;;25.75;;
24713;SDS011;12820;51.580;5.010;2023-04-08T02:45:30;50.15;;;24.55;;
24713;SDS011;12820;51.580;5.010;2023-04-08T02:50:34;58.47;;;25.77;;
24713;SDS011;12820;51.580;5.010;2023-04-08T02:55:37;49.80;;;25.42;;
24713;SDS011;12820;51.580;5.010;2023-04-08T03:00:40;48.90;;;23.77;;
24713;SDS011;12820;51.580;5.010;2023-04-08T03:05:42;58.50;;;26.65;;
24713;SDS011;12820;51.580;5.010;2023-04-08T03:10:44;53.30;;;27.45;;
24713;SDS011;12820;51.580;5.010;2023-04-08T03:15:46;55.63;;;26.95;;
24713;SDS011;12820;51.580;5.010;2023-04-08T03:20:48;59.63;;;27.67;;
24713;SDS011;12820;51.580;5.010;2023-04-08T03:25:50;50.70;;;26.70;;
24713;SDS011;12820;51.580;5.010;2023-04-08T03:30:53;63.58;;;28.13;;
24713;SDS011;12820;51.580;5.010;2023-04-08T03:35:55;54.47;;;27.38;;
24713;SDS011;12820;51.580;5.010;2023-04-08T03:40:57;54.55;;;26.50;;
24713;SDS011;12820;51.580;5.010;2023-04-08T03:45:59;57.53;;;27.98;;
24713;SDS011;12820;51.580;5.010;2023-04-08T03:51:01;54.10;;;27.60;;
24713;SDS011;12820;51.580;5.010;2023-04-08T03:56:04;60.60;;;27.75;;
24713;SDS011;12820;51.580;5.010;2023-04-08T04:01:06;53.83;;;27.90;;
24713;SDS011;12820;51.580;5.010;2023-04-08T04:06:08;62.47;;;27.33;;
24713;SDS011;12820;51.580;5.010;2023-04-08T04:11:11;61.20;;;27.83;;
24713;SDS011;12820;51.580;5.010;2023-04-08T04:16:13;56.20;;;27.85;;
24713;SDS011;12820;51.580;5.010;2023-04-08T04:21:15;56.65;;;25.33;;
24713;SDS011;12820;51.580;5.010;2023-04-08T04:26:17;53.97;;;27.60;;
24713;SDS011;12820;51.580;5.010;2023-04-08T04:31:20;59.67;;;27.65;;
24713;SDS011;12820;51.580;5.010;2023-04-08T04:36:23;61.00;;;27.95;;
24713;SDS011;12820;51.580;5.010;2023-04-08T04:41:25;68.25;;;28.85;;
24713;SDS011;12820;51.580;5.010;2023-04-08T04:46:28;64.40;;;28.90;;
24713;SDS011;12820;51.580;5.010;2023-04-08T04:51:30;68.03;;;28.60;;
24713;SDS011;12820;51.580;5.010;2023-04-08T04:56:33;70.82;;;28.90;;
24713;SDS011;12820;51.580;5.010;2023-04-08T05:01:36;66.53;;;28.67;;
24713;SDS011;12820;51.580;5.010;2023-04-08T05:06:38;70.53;;;28.67;;
24713;SDS011;12820;51.580;5.010;2023-04-08T05:11:40;73.80;;;27.33;;
24713;SDS011;12820;51.580;5.010;2023-04-08T05:16:42;66.25;;;27.63;;
24713;SDS011;12820;51.580;5.010;2023-04-08T05:21:44;63.00;;;26.80;;
24713;SDS011;12820;51.580;5.010;2023-04-08T05:26:47;67.45;;;27.92;;
24713;SDS011;12820;51.580;5.010;2023-04-08T05:31:53;60.90;;;26.45;;
24713;SDS011;12820;51.580;5.010;2023-04-08T05:36:55;66.45;;;26.33;;
24713;SDS011;12820;51.580;5.010;2023-04-08T05:41:57;55.22;;;25.27;;
24713;SDS011;12820;51.580;5.010;2023-04-08T05:46:59;56.63;;;24.65;;
24713;SDS011;12820;51.580;5.010;2023-04-08T05:52:03;52.95;;;23.20;;
24713;SDS011;12820;51.580;5.010;2023-04-08T05:57:05;59.22;;;24.80;;
24713;SDS011;12820;51.580;5.010;2023-04-08T06:02:10;57.08;;;25.85;;
24713;SDS011;12820;51.580;5.010;2023-04-08T06:07:12;56.25;;;24.98;;
24713;SDS011;12820;51.580;5.010;2023-04-08T06:12:14;56.50;;;24.88;;
24713;SDS011;12820;51.580;5.010;2023-04-08T06:17:17;47.78;;;22.27;;
24713;SDS011;12820;51.580;5.010;2023-04-08T06:22:19;41.20;;;21.38;;
24713;SDS011;12820;51.580;5.010;2023-04-08T06:27:21;42.35;;;22.17;;
24713;SDS011;12820;51.580;5.010;2023-04-08T06:32:23;44.75;;;21.73;;
24713;SDS011;12820;51.580;5.010;2023-04-08T06:37:25;41.58;;;21.02;;
24713;SDS011;12820;51.580;5.010;2023-04-08T06:42:27;36.70;;;20.02;;
24713;SDS011;12820;51.580;5.010;2023-04-08T06:47:48;45.13;;;22.47;;
24713;SDS011;12820;51.580;5.010;2023-04-08T06:52:50;41.42;;;22.00;;
24713;SDS011;12820;51.580;5.010;2023-04-08T06:57:52;45.00;;;23.20;;
24713;SDS011;12820;51.580;5.010;2023-04-08T07:02:54;49.25;;;23.77;;
24713;SDS011;12820;51.580;5.010;2023-04-08T07:07:56;42.90;;;22.30;;
24713;SDS011;12820;51.580;5.010;2023-04-08T07:12:59;41.78;;;21.60;;
24713;SDS011;12820;51.580;5.010;2023-04-08T07:18:01;34.50;;;19.02;;
24713;SDS011;12820;51.580;5.010;2023-04-08T07:23:03;36.15;;;19.80;;
24713;SDS011;12820;51.580;5.010;2023-04-08T07:28:06;36.58;;;20.25;;
24713;SDS011;12820;51.580;5.010;2023-04-08T07:33:08;35.22;;;19.20;;
24713;SDS011;12820;51.580;5.010;2023-04-08T07:38:10;40.00;;;21.35;;
24713;SDS011;12820;51.580;5.010;2023-04-08T07:43:14;36.55;;;21.92;;
24713;SDS011;12820;51.580;5.010;2023-04-08T07:48:16;38.33;;;20.23;;
24713;SDS011;12820;51.580;5.010;2023-04-08T07:53:18;34.72;;;20.25;;
24713;SDS011;12820;51.580;5.010;2023-04-08T07:58:21;34.53;;;20.27;;
24713;SDS011;12820;51.580;5.010;2023-04-08T08:03:23;36.50;;;19.23;;
24713;SDS011;12820;51.580;5.010;2023-04-08T08:08:26;32.08;;;19.48;;
24713;SDS011;12820;51.580;5.010;2023-04-08T08:13:28;38.85;;;20.85;;
24713;SDS011;12820;51.580;5.010;2023-04-08T08:18:30;35.60;;;21.60;;
24713;SDS011;12820;51.580;5.010;2023-04-08T08:23:32;37.67;;;22.38;;
24713;SDS011;12820;51.580;5.010;2023-04-08T08:28:35;35.65;;;20.50;;
24713;SDS011;12820;51.580;5.010;2023-04-08T08:33:37;33.80;;;19.58;;
24713;SDS011;12820;51.580;5.010;2023-04-08T08:38:39;40.97;;;22.60;;
24713;SDS011;12820;51.580;5.010;2023-04-08T08:43:41;42.00;;;22.70;;
24713;SDS011;12820;51.580;5.010;2023-04-08T08:48:45;44.40;;;24.50;;
24713;SDS011;12820;51.580;5.010;2023-04-08T08:53:48;45.50;;;26.15;;
24713;SDS011;12820;51.580;5.010;2023-04-08T08:58:50;43.72;;;25.77;;
24713;SDS011;12820;51.580;5.010;2023-04-08T09:04:11;37.35;;;22.17;;
24713;SDS011;12820;51.580;5.010;2023-04-08T09:09:17;41.35;;;24.13;;
24713;SDS011;12820;51.580;5.010;2023-04-08T09:14:23;49.92;;;27.92;;
24713;SDS011;12820;51.580;5.010;2023-04-08T09:19:26;65.40;;;34.33;;
24713;SDS011;12820;51.580;5.010;2023-04-08T09:24:29;62.10;;;33.40;;
24713;SDS011;12820;51.580;5.010;2023-04-08T09:29:32;42.83;;;25.27;;
24713;SDS011;12820;51.580;5.010;2023-04-08T09:34:39;32.60;;;20.88;;
24713;SDS011;12820;51.580;5.010;2023-04-08T09:39:42;35.13;;;22.48;;
24713;SDS011;12820;51.580;5.010;2023-04-08T09:44:44;57.25;;;33.13;;
24713;SDS011;12820;51.580;5.010;2023-04-08T09:49:54;45.03;;;27.35;;
24713;SDS011;12820;51.580;5.010;2023-04-08T09:55:02;40.97;;;23.83;;
24713;SDS011;12820;51.580;5.010;2023-04-08T10:05:16;40.95;;;24.20;;
24713;SDS011;12820;51.580;5.010;2023-04-08T10:10:19;35.90;;;23.10;;
24713;SDS011;12820;51.580;5.010;2023-04-08T10:15:31;30.23;;;19.80;;
24713;SDS011;12820;51.580;5.010;2023-04-08T10:20:41;31.00;;;20.13;;
24713;SDS011;12820;51.580;5.010;2023-04-08T10:25:47;32.70;;;21.48;;
24713;SDS011;12820;51.580;5.010;2023-04-08T10:30:59;31.60;;;20.48;;
24713;SDS011;12820;51.580;5.010;2023-04-08T10:36:10;27.88;;;19.15;;
24713;SDS011;12820;51.580;5.010;2023-04-08T10:41:13;33.35;;;22.50;;
24713;SDS011;12820;51.580;5.010;2023-04-08T10:46:26;27.27;;;18.75;;
24713;SDS011;12820;51.580;5.010;2023-04-08T10:51:31;26.80;;;18.65;;
24713;SDS011;12820;51.580;5.010;2023-04-08T10:56:47;25.27;;;17.55;;
24713;SDS011;12820;51.580;5.010;2023-04-08T11:01:51;23.15;;;16.40;;
24713;SDS011;12820;51.580;5.010;2023-04-08T11:06:53;24.38;;;17.85;;
24713;SDS011;12820;51.580;5.010;2023-04-08T11:11:56;22.52;;;16.83;;
24713;SDS011;12820;51.580;5.010;2023-04-08T11:16:58;22.15;;;16.67;;
24713;SDS011;12820;51.580;5.010;2023-04-08T11:22:02;19.23;;;15.27;;
24713;SDS011;12820;51.580;5.010;2023-04-08T11:27:06;22.15;;;16.33;;
24713;SDS011;12820;51.580;5.010;2023-04-08T11:32:08;20.17;;;15.20;;
24713;SDS011;12820;51.580;5.010;2023-04-08T11:37:10;21.42;;;15.40;;
24713;SDS011;12820;51.580;5.010;2023-04-08T11:42:26;17.48;;;14.55;;
24713;SDS011;12820;51.580;5.010;2023-04-08T11:47:31;18.42;;;14.35;;
24713;SDS011;12820;51.580;5.010;2023-04-08T11:57:45;17.98;;;14.30;;
24713;SDS011;12820;51.580;5.010;2023-04-08T12:02:47;18.23;;;14.18;;
24713;SDS011;12820;51.580;5.010;2023-04-08T12:07:50;17.38;;;14.13;;
24713;SDS011;12820;51.580;5.010;2023-04-08T12:12:52;20.15;;;14.95;;
24713;SDS011;12820;51.580;5.010;2023-04-08T12:17:54;16.98;;;14.20;;
24713;SDS011;12820;51.580;5.010;2023-04-08T12:22:57;18.27;;;14.90;;
24713;SDS011;12820;51.580;5.010;2023-04-08T12:27:59;16.20;;;13.07;;
24713;SDS011;12820;51.580;5.010;2023-04-08T12:33:01;15.85;;;12.38;;
24713;SDS011;12820;51.580;5.010;2023-04-08T12:38:03;18.25;;;12.38;;
24713;SDS011;12820;51.580;5.010;2023-04-08T12:43:05;17.60;;;13.35;;
24713;SDS011;12820;51.580;5.010;2023-04-08T12:48:07;16.98;;;13.43;;
24713;SDS011;12820;51.580;5.010;2023-04-08T12:53:10;17.30;;;13.75;;
24713;SDS011;12820;51.580;5.010;2023-04-08T12:58:12;16.10;;;12.82;;
24713;SDS011;12820;51.580;5.010;2023-04-08T13:03:14;17.45;;;13.55;;
24713;SDS011;12820;51.580;5.010;2023-04-08T13:08:18;17.85;;;13.23;;
24713;SDS011;12820;51.580;5.010;2023-04-08T13:13:20;13.63;;;11.20;;
24713;SDS011;12820;51.580;5.010;2023-04-08T13:18:22;15.40;;;11.18;;
24713;SDS011;12820;51.580;5.010;2023-04-08T13:23:24;10.95;;;9.57;;
24713;SDS011;12820;51.580;5.010;2023-04-08T13:28:27;12.38;;;9.20;;
24713;SDS011;12820;51.580;5.010;2023-04-08T13:33:29;12.15;;;9.00;;
24713;SDS011;12820;51.580;5.010;2023-04-08T13:38:31;12.02;;;9.32;;
24713;SDS011;12820;51.580;5.010;2023-04-08T13:43:33;11.35;;;9.50;;
24713;SDS011;12820;51.580;5.010;2023-04-08T13:48:35;10.82;;;8.60;;
24713;SDS011;12820;51.580;5.010;2023-04-08T13:53:37;12.40;;;9.15;;
24713;SDS011;12820;51.580;5.010;2023-04-08T13:58:39;10.45;;;9.35;;
24713;SDS011;12820;51.580;5.010;2023-04-08T14:03:42;13.93;;;9.52;;
24713;SDS011;12820;51.580;5.010;2023-04-08T14:08:44;11.48;;;9.15;;
24713;SDS011;12820;51.580;5.010;2023-04-08T14:13:46;13.32;;;9.88;;
24713;SDS011;12820;51.580;5.010;2023-04-08T14:18:48;10.90;;;9.02;;
24713;SDS011;12820;51.580;5.010;2023-04-08T14:23:51;11.07;;;9.15;;
24713;SDS011;12820;51.580;5.010;2023-04-08T14:28:54;12.85;;;10.77;;
24713;SDS011;12820;51.580;5.010;2023-04-08T14:33:56;11.68;;;9.70;;
24713;SDS011;12820;51.580;5.010;2023-04-08T14:38:58;11.68;;;10.20;;
24713;SDS011;12820;51.580;5.010;2023-04-08T14:44:00;12.77;;;11.00;;
24713;SDS011;12820;51.580;5.010;2023-04-08T14:49:03;12.60;;;9.73;;
24713;SDS011;12820;51.580;5.010;2023-04-08T14:54:05;12.75;;;9.77;;
24713;SDS011;12820;51.580;5.010;2023-04-08T14:59:07;14.07;;;9.73;;
24713;SDS011;12820;51.580;5.010;2023-04-08T15:04:09;13.45;;;9.48;;
24713;SDS011;12820;51.580;5.010;2023-04-08T15:09:11;13.80;;;10.45;;
24713;SDS011;12820;51.580;5.010;2023-04-08T15:14:13;14.88;;;10.57;;
24713;SDS011;12820;51.580;5.010;2023-04-08T15:19:15;15.07;;;11.35;;
24713;SDS011;12820;51.580;5.010;2023-04-08T15:24:20;13.23;;;10.50;;
24713;SDS011;12820;51.580;5.010;2023-04-08T15:29:22;12.13;;;9.25;;
24713;SDS011;12820;51.580;5.010;2023-04-08T15:34:25;11.32;;;9.13;;
24713;SDS011;12820;51.580;5.010;2023-04-08T15:39:27;13.05;;;9.48;;
24713;SDS011;12820;51.580;5.010;2023-04-08T15:44:30;11.18;;;8.43;;
24713;SDS011;12820;51.580;5.010;2023-04-08T15:49:33;13.20;;;9.70;;
24713;SDS011;12820;51.580;5.010;2023-04-08T15:54:35;13.02;;;8.85;;
24713;SDS011;12820;51.580;5.010;2023-04-08T15:59:38;12.02;;;8.35;;
24713;SDS011;12820;51.580;5.010;2023-04-08T16:04:40;12.55;;;8.63;;
24713;SDS011;12820;51.580;5.010;2023-04-08T16:09:42;12.07;;;8.73;;
24713;SDS011;12820;51.580;5.010;2023-04-08T16:14:44;12.48;;;9.40;;
24713;SDS011;12820;51.580;5.010;2023-04-08T16:19:48;13.07;;;8.80;;
24713;SDS011;12820;51.580;5.010;2023-04-08T16:24:52;14.25;;;9.63;;
24713;SDS011;12820;51.580;5.010;2023-04-08T16:29:54;13.05;;;9.10;;
24713;SDS011;12820;51.580;5.010;2023-04-08T16:34:58;13.55;;;8.85;;
24713;SDS011;12820;51.580;5.010;2023-04-08T16:40:00;14.80;;;8.98;;
24713;SDS011;12820;51.580;5.010;2023-04-08T16:45:04;15.55;;;9.35;;
24713;SDS011;12820;51.580;5.010;2023-04-08T16:50:06;17.90;;;10.90;;
24713;SDS011;12820;51.580;5.010;2023-04-08T16:55:09;18.27;;;10.43;;
24713;SDS011;12820;51.580;5.010;2023-04-08T17:00:13;14.60;;;8.27;;
24713;SDS011;12820;51.580;5.010;2023-04-08T17:05:18;14.98;;;8.20;;
24713;SDS011;12820;51.580;5.010;2023-04-08T17:10:22;15.38;;;8.55;;
24713;SDS011;12820;51.580;5.010;2023-04-08T17:15:25;15.32;;;8.18;;
24713;SDS011;12820;51.580;5.010;2023-04-08T17:20:27;15.32;;;8.40;;
24713;SDS011;12820;51.580;5.010;2023-04-08T17:25:30;16.27;;;9.30;;
24713;SDS011;12820;51.580;5.010;2023-04-08T17:30:32;14.70;;;8.90;;
24713;SDS011;12820;51.580;5.010;2023-04-08T17:35:34;16.80;;;8.93;;
24713;SDS011;12820;51.580;5.010;2023-04-08T17:40:37;16.33;;;9.43;;
24713;SDS011;12820;51.580;5.010;2023-04-08T17:45:39;13.73;;;8.98;;
24713;SDS011;12820;51.580;5.010;2023-04-08T17:50:41;12.20;;;8.27;;
24713;SDS011;12820;51.580;5.010;2023-04-08T17:55:43;16.73;;;9.57;;
24713;SDS011;12820;51.580;5.010;2023-04-08T18:00:46;14.68;;;9.10;;
24713;SDS011;12820;51.580;5.010;2023-04-08T18:05:49;16.90;;;9.90;;
24713;SDS011;12820;51.580;5.010;2023-04-08T18:10:51;14.32;;;9.25;;
24713;SDS011;12820;51.580;5.010;2023-04-08T18:15:53;16.92;;;9.27;;
24713;SDS011;12820;51.580;5.010;2023-04-08T18:20:55;16.08;;;9.70;;
24713;SDS011;12820;51.580;5.010;2023-04-08T18:25:57;13.65;;;9.60;;
24713;SDS011;12820;51.580;5.010;2023-04-08T18:31:00;13.35;;;9.80;;
24713;SDS011;12820;51.580;5.010;2023-04-08T18:36:05;13.57;;;9.60;;
24713;SDS011;12820;51.580;5.010;2023-04-08T18:41:09;15.93;;;9.40;;
24713;SDS011;12820;51.580;5.010;2023-04-08T18:46:12;14.70;;;9.75;;
24713;SDS011;12820;51.580;5.010;2023-04-08T18:51:14;14.07;;;10.07;;
24713;SDS011;12820;51.580;5.010;2023-04-08T18:56:19;16.42;;;10.32;;
24713;SDS011;12820;51.580;5.010;2023-04-08T19:01:24;14.77;;;10.43;;
24713;SDS011;12820;51.580;5.010;2023-04-08T19:06:29;15.68;;;10.52;;
24713;SDS011;12820;51.580;5.010;2023-04-08T19:11:34;15.30;;;10.60;;
24713;SDS011;12820;51.580;5.010;2023-04-08T19:16:36;17.77;;;10.82;;
24713;SDS011;12820;51.580;5.010;2023-04-08T19:21:42;17.52;;;11.32;;
24713;SDS011;12820;51.580;5.010;2023-04-08T19:26:44;18.20;;;11.93;;
24713;SDS011;12820;51.580;5.010;2023-04-08T19:31:47;20.02;;;11.75;;
24713;SDS011;12820;51.580;5.010;2023-04-08T19:36:49;18.20;;;12.38;;
24713;SDS011;12820;51.580;5.010;2023-04-08T19:41:51;16.85;;;11.88;;
24713;SDS011;12820;51.580;5.010;2023-04-08T19:46:53;17.27;;;11.80;;
24713;SDS011;12820;51.580;5.010;2023-04-08T19:51:59;20.02;;;12.68;;
24713;SDS011;12820;51.580;5.010;2023-04-08T19:57:01;17.75;;;11.75;;
24713;SDS011;12820;51.580;5.010;2023-04-08T20:02:04;22.23;;;12.80;;
24713;SDS011;12820;51.580;5.010;2023-04-08T20:07:06;21.13;;;13.73;;
24713;SDS011;12820;51.580;5.010;2023-04-08T20:12:09;21.98;;;13.90;;
24713;SDS011;12820;51.580;5.010;2023-04-08T20:17:11;21.63;;;15.02;;
24713;SDS011;12820;51.580;5.010;2023-04-08T20:22:13;22.40;;;15.60;;
24713;SDS011;12820;51.580;5.010;2023-04-08T20:27:15;21.55;;;15.20;;
24713;SDS011;12820;51.580;5.010;2023-04-08T20:32:19;23.08;;;14.50;;
24713;SDS011;12820;51.580;5.010;2023-04-08T20:37:21;23.92;;;14.77;;
24713;SDS011;12820;51.580;5.010;2023-04-08T20:42:24;20.63;;;14.38;;
24713;SDS011;12820;51.580;5.010;2023-04-08T20:47:26;21.20;;;14.35;;
24713;SDS011;12820;51.580;5.010;2023-04-08T20:52:29;21.52;;;14.38;;
24713;SDS011;12820;51.580;5.010;2023-04-08T20:57:31;27.80;;;17.33;;
24713;SDS011;12820;51.580;5.010;2023-04-08T21:02:33;22.65;;;15.85;;
24713;SDS011;12820;51.580;5.010;2023-04-08T21:07:36;28.42;;;14.57;;
24713;SDS011;12820;51.580;5.010;2023-04-08T21:12:39;26.15;;;15.43;;
24713;SDS011;12820;51.580;5.010;2023-04-08T21:17:41;22.80;;;15.68;;
24713;SDS011;12820;51.580;5.010;2023-04-08T21:22:43;26.58;;;17.95;;
24713;SDS011;12820;51.580;5.010;2023-04-08T21:27:45;22.42;;;15.18;;
24713;SDS011;12820;51.580;5.010;2023-04-08T21:32:47;22.75;;;16.13;;
24713;SDS011;12820;51.580;5.010;2023-04-08T21:37:49;24.63;;;16.42;;
24713;SDS011;12820;51.580;5.010;2023-04-08T21:42:52;27.13;;;16.80;;
24713;SDS011;12820;51.580;5.010;2023-04-08T21:47:54;24.38;;;16.60;;
24713;SDS011;12820;51.580;5.010;2023-04-08T21:52:58;24.08;;;15.77;;
24713;SDS011;12820;51.580;5.010;2023-04-08T21:58:01;25.85;;;17.58;;
24713;SDS011;12820;51.580;5.010;2023-04-08T22:03:08;25.83;;;17.52;;
24713;SDS011;12820;51.580;5.010;2023-04-08T22:08:11;26.75;;;17.60;;
24713;SDS011;12820;51.580;5.010;2023-04-08T22:13:13;25.50;;;17.90;;
24713;SDS011;12820;51.580;5.010;2023-04-08T22:18:18;24.17;;;16.58;;
24713;SDS011;12820;51.580;5.010;2023-04-08T22:23:20;27.23;;;15.93;;
24713;SDS011;12820;51.580;5.010;2023-04-08T22:28:22;22.27;;;15.73;;
24713;SDS011;12820;51.580;5.010;2023-04-08T22:33:24;24.20;;;17.00;;
24713;SDS011;12820;51.580;5.010;2023-04-08T22:38:29;24.38;;;16.90;;
24713;SDS011;12820;51.580;5.010;2023-04-08T22:43:35;24.80;;;17.40;;
24713;SDS011;12820;51.580;5.010;2023-04-08T22:48:38;27.35;;;18.27;;
24713;SDS011;12820;51.580;5.010;2023-04-08T22:53:47;26.65;;;18.40;;
24713;SDS011;12820;51.580;5.010;2023-04-08T22:58:49;27.90;;;19.35;;
24713;SDS011;12820;51.580;5.010;2023-04-08T23:03:52;28.52;;;18.27;;
24713;SDS011;12820;51.580;5.010;2023-04-08T23:08:54;24.00;;;17.48;;
24713;SDS011;12820;51.580;5.010;2023-04-08T23:13:56;28.30;;;18.98;;
24713;SDS011;12820;51.580;5.010;2023-04-08T23:18:59;26.73;;;17.27;;
24713;SDS011;12820;51.580;5.010;2023-04-08T23:24:01;27.52;;;17.35;;
24713;SDS011;12820;51.580;5.010;2023-04-08T23:29:03;25.23;;;17.65;;
24713;SDS011;12820;51.580;5.010;2023-04-08T23:34:05;26.48;;;18.10;;
24713;SDS011;12820;51.580;5.010;2023-04-08T23:39:07;24.73;;;16.95;;
24713;SDS011;12820;51.580;5.010;2023-04-08T23:44:09;25.63;;;17.48;;
24713;SDS011;12820;51.580;5.010;2023-04-08T23:49:11;25.63;;;16.88;;
24713;SDS011;12820;51.580;5.010;2023-04-08T23:54:13;25.30;;;17.05;;
24713;SDS011;12820;51.580;5.010;2023-04-08T23:59:16;24.58;;;17.02;;
